Weather at Amsterdam Airport Schiphol

Public forecast

Using degrees Celsius for public forecast. Weather courtesy of forecast.io.

Current aviation weather report (METAR) for Amsterdam Airport Schiphol

Retrieved 2021/04/20 22:25 UTC (15 minutes ago):

EHAM 202225Z 32003KT CAVOK 08/05 Q1017 NOSIG

Aviation forecast (TAF) for Amsterdam Airport Schiphol

Retrieved 2021/04/20 18:28 UTC (4 hours ago):

TAF EHAM 201657Z 2018/2124 34007KT CAVOK PROB30 2102/2106 4000 BR MIFG TEMPO 2108/2112 BKN015 BECMG 2110/2113 03014KT SCT030 BECMG 2118/2121 36005KT CAVOK